Time;durP1;ratioP1;P1;durP2;ratioP2;P2;SDS_P1;SDS_P2;PMS_P1;PMS_P2;Temp;Humidity;BMP_temperature;BMP_pressure;BME280_temperature;BME280_humidity;BME280_pressure;Samples;Min_cycle;Max_cycle;Signal;HPM_P1;HPM_P2
2021/03/16 00:01:03;;;;;;;17.77;1.38;;;6.90;99.90;;;;;;5073168;28;20028;-74
2021/03/16 00:03:29;;;;;;;8.07;3.40;;;6.90;99.90;;;;;;5073698;28;20032;-73
2021/03/16 00:05:55;;;;;;;15.73;2.50;;;6.90;99.90;;;;;;5075601;28;20081;-73
2021/03/16 00:08:20;;;;;;;17.40;2.95;;;6.90;99.90;;;;;;5072821;28;20045;-73
2021/03/16 00:10:46;;;;;;;12.73;1.48;;;6.90;99.90;;;;;;5073849;28;20113;-72
2021/03/16 00:13:12;;;;;;;14.35;1.85;;;6.90;99.90;;;;;;5074652;28;20029;-73
2021/03/16 00:15:38;;;;;;;21.67;2.25;;;7.00;99.90;;;;;;5072818;28;20043;-72
2021/03/16 00:18:04;;;;;;;28.08;2.15;;;7.00;99.90;;;;;;5072623;28;20029;-73
2021/03/16 00:20:31;;;;;;;19.27;2.92;;;7.00;99.90;;;;;;5073354;28;20024;-71
2021/03/16 00:22:56;;;;;;;17.13;2.58;;;7.10;99.90;;;;;;5072704;28;20385;-73
2021/03/16 00:25:23;;;;;;;12.32;1.90;;;7.00;99.90;;;;;;5074145;28;20036;-73
2021/03/16 00:27:48;;;;;;;17.60;2.28;;;6.90;99.90;;;;;;5074526;28;20039;-73
2021/03/16 00:30:14;;;;;;;12.45;2.00;;;6.90;99.90;;;;;;5072570;28;20417;-74
2021/03/16 00:32:40;;;;;;;12.63;2.83;;;6.90;99.90;;;;;;5074093;28;20024;-73
2021/03/16 00:35:06;;;;;;;17.60;2.10;;;6.90;99.90;;;;;;5074546;28;20515;-73
2021/03/16 00:37:33;;;;;;;23.90;3.70;;;6.90;99.90;;;;;;5071564;28;20145;-73
2021/03/16 00:39:59;;;;;;;14.95;1.70;;;7.00;99.90;;;;;;5074040;28;20035;-73
2021/03/16 00:42:25;;;;;;;13.18;1.88;;;6.90;99.90;;;;;;5073240;28;20115;-74
2021/03/16 00:44:51;;;;;;;19.02;3.05;;;7.00;99.90;;;;;;5084605;28;20079;-74
2021/03/16 00:47:17;;;;;;;13.38;2.47;;;7.00;99.90;;;;;;5072169;28;20448;-73
2021/03/16 00:49:42;;;;;;;21.35;2.08;;;7.00;99.90;;;;;;5072756;28;20162;-72
2021/03/16 00:52:08;;;;;;;21.17;2.22;;;7.00;99.90;;;;;;5073359;28;20040;-73
2021/03/16 00:54:34;;;;;;;15.35;1.73;;;7.00;99.90;;;;;;5073639;28;20025;-72
2021/03/16 00:56:59;;;;;;;15.55;2.95;;;7.00;99.90;;;;;;5072116;28;20446;-72
2021/03/16 00:59:25;;;;;;;15.13;1.70;;;6.90;99.90;;;;;;5073412;28;20081;-73
2021/03/16 01:01:51;;;;;;;16.65;2.53;;;6.90;99.90;;;;;;5072964;28;20089;-71
2021/03/16 01:04:16;;;;;;;15.45;1.83;;;7.00;99.90;;;;;;5070304;28;20040;-73
2021/03/16 01:06:42;;;;;;;18.25;1.95;;;7.00;99.90;;;;;;5072264;28;20158;-71
2021/03/16 01:09:07;;;;;;;20.85;2.13;;;6.90;99.90;;;;;;5072617;28;20032;-72
2021/03/16 01:11:33;;;;;;;17.35;1.65;;;6.90;99.90;;;;;;5070780;28;20039;-72
2021/03/16 01:13:59;;;;;;;18.95;1.80;;;6.90;99.90;;;;;;5073005;28;20488;-72
2021/03/16 01:16:25;;;;;;;14.02;2.20;;;6.90;99.90;;;;;;5071154;28;20028;-72
2021/03/16 01:18:50;;;;;;;12.80;1.95;;;6.90;99.90;;;;;;5071702;28;20508;-72
2021/03/16 01:21:16;;;;;;;15.40;2.38;;;6.90;99.90;;;;;;5071727;28;20032;-72
2021/03/16 01:23:42;;;;;;;17.23;2.33;;;6.90;99.90;;;;;;5072959;28;20025;-71
2021/03/16 01:26:08;;;;;;;14.88;2.08;;;6.90;99.90;;;;;;5072971;28;20491;-72
2021/03/16 01:28:34;;;;;;;12.65;2.28;;;6.90;99.90;;;;;;5071580;28;20028;-72
2021/03/16 01:31:01;;;;;;;13.48;2.65;;;6.90;99.90;;;;;;5072326;28;20040;-74
2021/03/16 01:33:27;;;;;;;20.88;1.42;;;7.00;99.90;;;;;;5073120;28;20513;-74
2021/03/16 01:35:52;;;;;;;8.18;1.95;;;7.00;99.90;;;;;;5071744;28;20059;-73
2021/03/16 01:38:18;;;;;;;12.82;1.50;;;6.90;99.90;;;;;;5073103;28;20028;-72
2021/03/16 01:40:44;;;;;;;21.02;2.13;;;7.00;99.90;;;;;;5072572;28;20032;-73
2021/03/16 01:43:10;;;;;;;10.65;1.85;;;7.00;99.90;;;;;;5062019;28;20108;-72
2021/03/16 01:45:36;;;;;;;17.98;2.40;;;6.90;99.90;;;;;;5072646;28;20495;-73
2021/03/16 01:48:04;;;;;;;16.35;2.25;;;7.00;99.90;;;;;;5071713;28;20021;-72
2021/03/16 01:50:30;;;;;;;12.27;3.30;;;7.10;99.90;;;;;;5072088;28;20039;-73
2021/03/16 01:52:56;;;;;;;9.57;2.22;;;7.00;99.90;;;;;;5072507;28;20100;-73
2021/03/16 01:55:22;;;;;;;20.30;2.30;;;7.00;99.90;;;;;;5070934;28;20024;-73
2021/03/16 01:57:52;;;;;;;21.42;2.03;;;7.00;99.90;;;;;;5066732;28;20029;-73
2021/03/16 02:00:18;;;;;;;27.30;2.28;;;7.00;99.90;;;;;;5054912;28;20048;-73
2021/03/16 02:02:44;;;;;;;15.40;2.33;;;7.00;99.90;;;;;;5070978;28;20469;-73
2021/03/16 02:05:11;;;;;;;19.27;2.03;;;7.00;99.90;;;;;;5072451;28;20066;-73
2021/03/16 02:07:51;;;;;;;13.63;2.47;;;7.00;99.90;;;;;;5072412;28;20437;-72
2021/03/16 02:10:26;;;;;;;16.92;3.00;;;7.00;99.90;;;;;;5071363;28;20028;-74
2021/03/16 02:13:01;;;;;;;19.10;2.30;;;6.90;99.90;;;;;;5071771;28;20377;-73
2021/03/16 02:15:33;;;;;;;12.25;2.35;;;6.90;99.90;;;;;;5071071;28;20027;-74
2021/03/16 02:18:03;;;;;;;17.10;2.75;;;6.90;99.90;;;;;;5072371;28;20381;-73
2021/03/16 02:20:51;;;;;;;17.90;2.47;;;6.90;99.90;;;;;;5072139;28;20048;-74
2021/03/16 02:23:26;;;;;;;29.67;4.07;;;6.90;99.90;;;;;;5076909;28;20043;-76
2021/03/16 02:26:27;;;;;;;15.88;2.85;;;6.90;99.90;;;;;;5075098;28;20024;-75
2021/03/16 02:29:21;;;;;;;16.52;1.95;;;6.90;99.90;;;;;;5053739;28;20047;-76
2021/03/16 02:31:59;;;;;;;16.77;1.63;;;6.70;99.90;;;;;;5072868;28;20384;-75
2021/03/16 02:34:26;;;;;;;24.67;3.10;;;6.70;99.90;;;;;;5076083;28;20473;-75
2021/03/16 02:36:53;;;;;;;15.18;2.83;;;6.80;99.90;;;;;;5075008;28;20017;-74
2021/03/16 02:39:20;;;;;;;26.25;3.08;;;6.70;99.90;;;;;;5076023;28;20025;-74
2021/03/16 02:41:50;;;;;;;17.80;2.72;;;6.70;99.90;;;;;;5074787;28;20063;-75
2021/03/16 02:44:17;;;;;;;22.27;3.42;;;6.60;99.90;;;;;;5076686;28;20032;-74
2021/03/16 02:46:45;;;;;;;21.25;3.05;;;6.70;99.90;;;;;;5074943;28;20043;-74
2021/03/16 02:49:12;;;;;;;38.50;3.88;;;6.70;99.90;;;;;;5075860;28;20103;-77
2021/03/16 02:51:39;;;;;;;12.02;2.22;;;6.70;99.90;;;;;;5074732;28;20036;-75
2021/03/16 02:54:05;;;;;;;25.20;3.03;;;6.70;99.90;;;;;;5074779;28;20051;-73
2021/03/16 02:56:33;;;;;;;21.23;3.58;;;6.70;99.90;;;;;;5074319;28;20036;-75
2021/03/16 02:59:00;;;;;;;24.00;3.67;;;6.60;99.90;;;;;;5075609;28;20024;-74
2021/03/16 03:01:26;;;;;;;18.02;2.67;;;6.60;99.90;;;;;;5076398;28;20542;-75
2021/03/16 03:03:53;;;;;;;15.68;2.53;;;6.70;99.90;;;;;;5075583;28;20384;-76
2021/03/16 03:06:20;;;;;;;22.23;2.65;;;6.70;99.90;;;;;;5075862;28;20051;-76
2021/03/16 03:08:47;;;;;;;28.30;3.58;;;6.70;99.90;;;;;;5075707;28;20040;-76
2021/03/16 03:11:13;;;;;;;25.73;2.67;;;6.60;99.90;;;;;;5075672;28;20426;-75
2021/03/16 03:13:40;;;;;;;13.93;3.42;;;6.60;99.90;;;;;;5075305;28;20025;-76
2021/03/16 03:16:06;;;;;;;26.45;3.13;;;6.60;99.90;;;;;;5073695;28;20583;-76
2021/03/16 03:18:34;;;;;;;31.50;2.60;;;6.70;99.90;;;;;;5074757;28;20032;-76
2021/03/16 03:21:10;;;;;;;17.48;1.98;;;6.70;99.90;;;;;;5075207;28;20480;-75
2021/03/16 03:23:43;;;;;;;19.42;1.90;;;6.60;99.90;;;;;;5074109;28;20024;-76
2021/03/16 03:26:16;;;;;;;13.38;2.13;;;6.60;99.90;;;;;;5075173;28;20109;-75
2021/03/16 03:28:44;;;;;;;13.43;1.70;;;6.60;99.90;;;;;;5075558;28;20491;-75
2021/03/16 03:31:11;;;;;;;18.45;2.63;;;6.70;99.90;;;;;;5075790;28;20091;-75
2021/03/16 03:33:40;;;;;;;24.13;3.00;;;6.80;99.90;;;;;;5074083;28;20025;-77
2021/03/16 03:36:07;;;;;;;20.80;4.20;;;6.70;99.90;;;;;;5074161;28;20036;-76
2021/03/16 03:38:33;;;;;;;25.10;3.80;;;6.70;99.90;;;;;;5075536;28;20025;-79
2021/03/16 03:41:02;;;;;;;12.25;1.77;;;6.70;99.90;;;;;;5073478;28;20025;-74
2021/03/16 03:43:32;;;;;;;18.67;2.88;;;6.60;99.90;;;;;;5073771;28;20025;-73
2021/03/16 03:45:58;;;;;;;25.15;2.95;;;6.60;99.90;;;;;;5071615;28;20024;-74
2021/03/16 03:48:27;;;;;;;23.73;2.53;;;6.60;99.90;;;;;;5073975;28;20016;-73
2021/03/16 03:50:54;;;;;;;17.05;2.40;;;6.60;99.90;;;;;;5073382;28;20017;-74
2021/03/16 03:53:20;;;;;;;31.13;3.33;;;6.70;99.90;;;;;;5073079;28;20040;-74
2021/03/16 03:55:47;;;;;;;26.50;3.90;;;6.70;99.90;;;;;;5074251;28;20012;-73
2021/03/16 03:58:15;;;;;;;16.48;1.70;;;6.70;99.90;;;;;;5072701;28;20021;-73
2021/03/16 04:00:41;;;;;;;15.07;3.60;;;6.60;99.90;;;;;;5073123;28;20044;-74
2021/03/16 04:03:07;;;;;;;15.27;2.58;;;6.60;99.90;;;;;;5071545;28;20032;-74
2021/03/16 04:05:33;;;;;;;10.80;1.95;;;6.70;99.90;;;;;;5073455;28;20503;-74
2021/03/16 04:08:03;;;;;;;16.45;3.05;;;6.80;99.90;;;;;;5074426;28;20028;-74
2021/03/16 04:10:30;;;;;;;16.48;2.22;;;6.70;99.90;;;;;;5072772;28;20024;-74
2021/03/16 04:12:56;;;;;;;19.88;2.85;;;6.80;99.90;;;;;;5073341;28;20346;-74
2021/03/16 04:15:23;;;;;;;14.32;2.97;;;6.70;99.90;;;;;;5073850;28;20419;-73
2021/03/16 04:17:49;;;;;;;38.25;2.42;;;6.70;99.90;;;;;;5073691;28;20025;-74
2021/03/16 04:20:15;;;;;;;15.30;2.92;;;6.70;99.90;;;;;;5074085;28;20036;-73
2021/03/16 04:22:42;;;;;;;21.38;3.17;;;6.70;99.90;;;;;;5073803;28;20029;-74
2021/03/16 04:25:10;;;;;;;21.40;3.40;;;6.60;99.90;;;;;;5071895;28;20037;-74
2021/03/16 04:27:35;;;;;;;23.27;2.65;;;6.60;99.90;;;;;;5072123;28;20020;-74
2021/03/16 04:30:01;;;;;;;22.52;3.55;;;6.60;99.90;;;;;;5071512;28;20507;-73
2021/03/16 04:32:27;;;;;;;25.25;3.60;;;6.50;99.90;;;;;;5071203;28;20081;-73
2021/03/16 04:34:52;;;;;;;18.85;2.25;;;6.50;99.90;;;;;;5071427;28;20020;-73
2021/03/16 04:37:18;;;;;;;13.45;2.45;;;6.60;99.90;;;;;;5072969;28;20025;-74
2021/03/16 04:39:44;;;;;;;14.85;2.97;;;6.50;99.90;;;;;;5071046;28;20028;-74
2021/03/16 04:42:10;;;;;;;25.05;4.07;;;6.60;99.90;;;;;;5071064;28;20147;-74
2021/03/16 04:44:36;;;;;;;20.00;2.50;;;6.60;99.90;;;;;;5072119;28;20056;-74
2021/03/16 04:47:02;;;;;;;29.55;3.00;;;6.70;99.90;;;;;;5071915;28;20018;-74
2021/03/16 04:49:27;;;;;;;20.38;2.50;;;6.70;99.90;;;;;;5072122;28;20051;-73
2021/03/16 04:51:53;;;;;;;19.02;3.05;;;6.80;99.90;;;;;;5071721;28;20024;-73
2021/03/16 04:54:19;;;;;;;25.63;2.83;;;6.70;99.90;;;;;;5072871;28;20078;-74
2021/03/16 04:56:44;;;;;;;15.88;2.20;;;6.70;99.90;;;;;;5071315;28;20040;-74
2021/03/16 04:59:10;;;;;;;21.55;3.28;;;6.80;99.90;;;;;;5073023;28;20027;-74
2021/03/16 05:01:36;;;;;;;21.00;2.47;;;6.80;99.90;;;;;;5073310;28;20056;-73
2021/03/16 05:04:01;;;;;;;12.52;1.80;;;6.70;99.90;;;;;;5071225;28;20024;-73
2021/03/16 05:06:27;;;;;;;22.00;2.95;;;6.70;99.90;;;;;;5072675;28;20036;-74
2021/03/16 05:08:53;;;;;;;16.50;2.45;;;6.70;99.90;;;;;;5072270;28;20024;-74
2021/03/16 05:11:18;;;;;;;17.45;2.05;;;6.60;99.90;;;;;;5071539;28;20025;-74
2021/03/16 05:13:44;;;;;;;13.65;1.98;;;6.70;99.90;;;;;;5071066;28;20416;-73
2021/03/16 05:16:10;;;;;;;23.42;3.35;;;6.70;99.90;;;;;;5072378;28;20040;-74
2021/03/16 05:18:36;;;;;;;34.78;2.90;;;6.70;99.90;;;;;;5072237;28;20130;-74
2021/03/16 05:21:02;;;;;;;15.70;2.08;;;6.60;99.90;;;;;;5072472;28;20103;-73
2021/03/16 05:23:28;;;;;;;16.08;2.20;;;6.60;99.90;;;;;;5071944;28;20447;-74
2021/03/16 05:25:53;;;;;;;27.23;3.65;;;6.60;99.90;;;;;;5070502;28;20107;-75
2021/03/16 05:28:19;;;;;;;21.50;2.42;;;6.70;99.90;;;;;;5070516;28;20170;-74
2021/03/16 05:30:44;;;;;;;27.33;2.97;;;6.70;99.90;;;;;;5070422;28;20044;-74
2021/03/16 05:33:10;;;;;;;17.67;2.53;;;6.70;99.90;;;;;;5070913;28;20574;-74
2021/03/16 05:35:36;;;;;;;18.42;2.17;;;6.80;99.90;;;;;;5074012;28;20059;-74
2021/03/16 05:38:01;;;;;;;25.08;3.58;;;6.70;99.90;;;;;;5068306;28;20017;-74
2021/03/16 05:40:30;;;;;;;30.65;2.88;;;6.60;99.90;;;;;;5070688;28;20020;-74
2021/03/16 05:42:57;;;;;;;21.10;3.90;;;6.80;99.90;;;;;;5071451;28;20032;-74
2021/03/16 05:45:23;;;;;;;20.85;2.15;;;6.70;99.90;;;;;;5071674;28;20070;-74
2021/03/16 05:47:50;;;;;;;20.27;4.13;;;6.80;99.90;;;;;;5071858;28;20044;-74
2021/03/16 05:50:16;;;;;;;14.23;2.75;;;6.70;99.90;;;;;;5071446;28;20103;-74
2021/03/16 05:52:43;;;;;;;27.25;3.47;;;6.80;99.90;;;;;;5071148;28;20078;-74
2021/03/16 05:55:09;;;;;;;16.27;2.08;;;6.70;99.90;;;;;;5067846;28;20016;-73
2021/03/16 05:57:35;;;;;;;7.95;1.85;;;6.70;99.90;;;;;;5070404;28;20028;-73
2021/03/16 06:00:01;;;;;;;13.35;2.20;;;6.50;99.90;;;;;;5071605;28;20024;-73
2021/03/16 06:02:26;;;;;;;22.02;2.22;;;6.60;99.90;;;;;;5071343;28;20051;-72
2021/03/16 06:04:52;;;;;;;21.35;4.55;;;6.60;99.90;;;;;;5073489;28;20024;-72
2021/03/16 06:07:18;;;;;;;24.60;2.63;;;6.60;99.90;;;;;;5072962;28;20033;-73
2021/03/16 06:09:44;;;;;;;26.08;2.83;;;6.70;99.90;;;;;;5071830;28;20042;-73
2021/03/16 06:12:10;;;;;;;16.67;3.78;;;6.70;99.90;;;;;;5072812;28;20085;-73
2021/03/16 06:14:38;;;;;;;23.13;3.05;;;6.70;99.90;;;;;;5064703;28;20036;-73
2021/03/16 06:17:04;;;;;;;19.33;3.10;;;6.80;99.90;;;;;;5072820;28;20021;-73
2021/03/16 06:19:32;;;;;;;28.95;2.70;;;6.90;99.90;;;;;;5072048;28;20029;-74
2021/03/16 06:22:02;;;;;;;20.92;3.17;;;6.90;99.90;;;;;;5071042;28;20025;-74
2021/03/16 06:24:28;;;;;;;27.40;3.20;;;7.00;99.90;;;;;;5067771;28;20024;-74
2021/03/16 06:26:54;;;;;;;48.45;5.50;;;7.00;99.90;;;;;;5070290;28;20401;-74
2021/03/16 06:29:20;;;;;;;18.27;2.78;;;7.00;99.90;;;;;;5071592;28;20122;-74
2021/03/16 06:31:45;;;;;;;23.92;2.67;;;7.00;99.90;;;;;;5072733;28;20338;-74
2021/03/16 06:34:22;;;;;;;20.65;3.28;;;7.00;99.90;;;;;;5071976;28;20029;-74
2021/03/16 06:36:59;;;;;;;31.67;4.25;;;7.00;99.90;;;;;;5069893;28;20481;-74
2021/03/16 06:39:25;;;;;;;25.75;2.90;;;7.00;99.90;;;;;;5063797;28;20028;-74
2021/03/16 06:41:52;;;;;;;23.17;3.13;;;6.90;99.90;;;;;;5072051;28;20495;-74
2021/03/16 06:44:19;;;;;;;14.48;2.33;;;6.90;99.90;;;;;;5069670;28;20021;-73
2021/03/16 06:46:57;;;;;;;17.25;3.28;;;7.00;99.90;;;;;;5070219;28;20048;-73
2021/03/16 06:49:24;;;;;;;22.42;2.85;;;7.00;99.90;;;;;;5070833;28;20025;-73
2021/03/16 06:51:50;;;;;;;24.67;3.42;;;7.00;99.90;;;;;;5068030;28;20107;-73
2021/03/16 06:54:19;;;;;;;16.73;2.78;;;7.00;99.90;;;;;;5070785;28;20021;-73
2021/03/16 06:56:56;;;;;;;11.52;3.20;;;7.00;99.90;;;;;;5070127;28;20039;-73
2021/03/16 06:59:24;;;;;;;21.33;2.75;;;7.10;99.90;;;;;;5069496;28;20028;-73
2021/03/16 07:01:50;;;;;;;22.42;3.00;;;7.10;99.90;;;;;;5071458;28;20062;-74
2021/03/16 07:04:23;;;;;;;22.73;3.05;;;7.10;99.90;;;;;;5069989;28;20477;-73
2021/03/16 07:06:50;;;;;;;16.45;3.78;;;7.20;99.90;;;;;;5068243;28;20044;-73
2021/03/16 07:09:17;;;;;;;16.70;4.07;;;7.20;99.90;;;;;;5070782;28;20029;-74
2021/03/16 07:11:54;;;;;;;22.48;3.75;;;7.10;99.90;;;;;;5074241;28;20476;-74
2021/03/16 07:14:21;;;;;;;28.35;3.30;;;7.20;99.90;;;;;;5074062;28;20481;-74
2021/03/16 07:16:48;;;;;;;29.85;4.68;;;7.30;99.90;;;;;;5076575;28;20025;-73
2021/03/16 07:19:16;;;;;;;16.95;2.83;;;7.30;99.90;;;;;;5076324;28;20380;-73
2021/03/16 07:21:51;;;;;;;24.15;2.47;;;7.40;99.90;;;;;;5074975;28;20074;-74
2021/03/16 07:24:23;;;;;;;33.28;3.17;;;7.50;99.90;;;;;;5060970;28;20025;-74
2021/03/16 07:26:49;;;;;;;18.15;3.90;;;7.60;99.90;;;;;;5074889;28;21040;-74
2021/03/16 07:29:16;;;;;;;24.33;3.03;;;7.60;99.90;;;;;;5074707;28;20044;-73
2021/03/16 07:31:45;;;;;;;14.18;2.20;;;7.60;99.90;;;;;;5085983;28;20032;-72
2021/03/16 07:34:13;;;;;;;25.60;3.15;;;7.70;99.90;;;;;;5073894;28;20041;-72
2021/03/16 07:36:40;;;;;;;15.65;3.13;;;7.80;99.90;;;;;;5073733;28;20021;-74
2021/03/16 07:39:08;;;;;;;13.73;3.83;;;7.60;99.90;;;;;;5076008;28;20021;-73
2021/03/16 07:41:36;;;;;;;;;;;7.60;99.90;;;;;;5078165;28;20495;-74
2021/03/16 07:44:10;;;;;;;17.90;2.83;;;7.60;99.90;;;;;;5080314;28;19916;-74
2021/03/16 07:46:41;;;;;;;20.98;2.72;;;7.70;99.90;;;;;;5070194;28;20035;-74
2021/03/16 07:49:07;;;;;;;28.38;3.60;;;7.90;99.90;;;;;;5070747;28;20033;-74
2021/03/16 07:51:34;;;;;;;14.20;2.15;;;8.00;99.90;;;;;;5074724;28;20532;-73
2021/03/16 07:54:07;;;;;;;34.10;3.85;;;8.00;99.90;;;;;;5075071;28;20104;-74
2021/03/16 07:56:34;;;;;;;11.35;2.85;;;7.90;99.90;;;;;;5070996;28;20017;-75
2021/03/16 07:59:01;;;;;;;24.33;2.72;;;7.90;99.90;;;;;;5072271;28;20028;-74
2021/03/16 08:01:27;;;;;;;14.13;2.50;;;7.90;99.90;;;;;;5071383;28;20086;-74
2021/03/16 08:04:10;;;;;;;23.10;2.55;;;7.90;99.90;;;;;;5072996;28;20033;-74
2021/03/16 08:06:36;;;;;;;28.60;2.67;;;7.90;99.90;;;;;;5074155;28;20052;-73
2021/03/16 08:09:17;;;;;;;18.08;2.10;;;7.90;99.90;;;;;;5072021;28;20024;-74
2021/03/16 08:11:43;;;;;;;22.00;2.38;;;7.90;99.90;;;;;;5069165;28;20048;-73
2021/03/16 08:14:09;;;;;;;19.35;2.28;;;8.00;99.90;;;;;;5064150;28;20151;-73
2021/03/16 08:16:38;;;;;;;26.30;3.45;;;8.00;99.90;;;;;;5068586;28;20039;-73
2021/03/16 08:19:20;;;;;;;36.30;2.70;;;7.90;99.90;;;;;;5059177;28;20025;-73
2021/03/16 08:21:55;;;;;;;21.13;2.67;;;7.70;99.90;;;;;;5075698;28;20036;-74
2021/03/16 08:24:23;;;;;;;26.23;3.35;;;7.70;99.90;;;;;;5076208;28;20050;-73
2021/03/16 08:26:51;;;;;;;13.65;2.95;;;7.80;99.90;;;;;;5085416;28;20484;-74
2021/03/16 08:29:26;;;;;;;22.98;2.33;;;7.90;99.90;;;;;;5059585;28;20033;-74
2021/03/16 08:31:54;;;;;;;22.63;3.17;;;7.90;99.90;;;;;;5068026;28;20020;-74
2021/03/16 08:34:24;;;;;;;16.25;2.72;;;8.00;99.90;;;;;;5068662;28;20028;-74
2021/03/16 08:36:50;;;;;;;21.88;2.67;;;7.80;99.90;;;;;;5068235;28;20017;-75
2021/03/16 08:39:26;;;;;;;16.05;3.38;;;7.90;99.90;;;;;;5063715;28;20029;-74
2021/03/16 08:41:57;;;;;;;20.58;2.63;;;8.00;99.90;;;;;;5061804;28;20559;-74
2021/03/16 08:44:25;;;;;;;26.88;2.85;;;7.90;99.90;;;;;;5066875;28;20051;-74
2021/03/16 08:46:52;;;;;;;17.73;2.10;;;7.90;99.90;;;;;;5061861;28;20028;-74
2021/03/16 08:49:23;;;;;;;17.10;2.28;;;8.00;99.90;;;;;;5070226;28;20056;-74
2021/03/16 08:51:49;;;;;;;17.98;2.60;;;8.20;99.90;;;;;;5072616;28;20035;-73
2021/03/16 08:54:28;;;;;;;22.30;2.15;;;8.30;99.90;;;;;;5073569;28;20028;-74
2021/03/16 08:56:53;;;;;;;15.65;2.38;;;8.20;99.90;;;;;;5067956;28;20035;-74
2021/03/16 08:59:20;;;;;;;13.88;3.28;;;8.10;99.90;;;;;;5068942;28;20481;-74
2021/03/16 09:01:50;;;;;;;22.40;3.42;;;8.00;99.90;;;;;;5074811;28;20036;-75
2021/03/16 09:04:18;;;;;;;34.25;3.55;;;7.90;99.90;;;;;;5071996;28;20063;-74
2021/03/16 09:06:52;;;;;;;22.35;3.53;;;7.70;99.90;;;;;;5066249;28;20384;-74
2021/03/16 09:09:31;;;;;;;10.05;1.27;;;7.70;99.90;;;;;;5069380;28;20103;-75
2021/03/16 09:11:57;;;;;;;21.48;2.63;;;7.80;99.90;;;;;;5069367;28;20455;-75
2021/03/16 09:14:23;;;;;;;24.17;3.42;;;7.80;99.90;;;;;;5073380;28;20531;-74
2021/03/16 09:16:54;;;;;;;17.60;2.63;;;7.80;99.90;;;;;;5063543;28;20075;-75
2021/03/16 09:19:32;;;;;;;19.65;2.55;;;7.80;99.90;;;;;;5060312;28;20482;-75
2021/03/16 09:22:03;;;;;;;13.15;2.42;;;7.60;99.90;;;;;;5074343;28;20116;-75
2021/03/16 09:24:31;;;;;;;13.13;2.63;;;7.60;99.90;;;;;;5075511;28;20058;-75
2021/03/16 09:27:01;;;;;;;12.90;2.60;;;7.60;99.90;;;;;;5071275;28;20036;-74
2021/03/16 09:29:32;;;;;;;5.32;1.13;;;7.50;99.90;;;;;;5070696;28;20040;-74
2021/03/16 09:32:11;;;;;;;10.15;1.00;;;7.40;99.90;;;;;;5072219;28;20024;-74
2021/03/16 09:34:45;;;;;;;2.45;1.23;;;7.40;99.90;;;;;;5069932;28;20021;-74
2021/03/16 09:37:13;;;;;;;8.55;1.00;;;7.50;99.90;;;;;;5063798;28;20029;-75
2021/03/16 09:39:39;;;;;;;8.32;1.23;;;7.70;99.90;;;;;;5060867;28;20023;-75
2021/03/16 09:42:07;;;;;;;5.65;1.20;;;7.70;99.90;;;;;;5068099;28;20115;-75
2021/03/16 09:44:35;;;;;;;10.85;2.08;;;7.70;99.90;;;;;;5060794;28;20443;-75
2021/03/16 09:47:01;;;;;;;5.55;0.90;;;7.70;99.90;;;;;;5061359;28;20276;-75
2021/03/16 09:49:39;;;;;;;5.45;1.00;;;7.70;99.90;;;;;;5063432;28;20028;-75
2021/03/16 09:52:11;;;;;;;3.80;0.80;;;7.60;99.90;;;;;;5070527;28;20071;-75
2021/03/16 09:54:44;;;;;;;5.78;1.08;;;7.60;99.90;;;;;;5065946;28;20024;-75
2021/03/16 09:57:15;;;;;;;3.42;1.25;;;7.60;99.90;;;;;;5066935;28;20021;-75
2021/03/16 09:59:45;;;;;;;6.88;0.75;;;7.70;99.90;;;;;;5062842;28;20373;-74
2021/03/16 10:02:12;;;;;;;5.38;0.70;;;7.80;99.90;;;;;;5064356;28;20032;-74
2021/03/16 10:04:50;;;;;;;9.25;1.15;;;7.90;99.90;;;;;;5069991;28;20500;-75
2021/03/16 10:07:26;;;;;;;;;;;7.90;99.90;;;;;;5063565;28;20497;-74
2021/03/16 10:09:52;;;;;;;2.55;0.90;;;7.90;99.90;;;;;;5081424;28;19908;-75
2021/03/16 10:12:22;;;;;;;5.15;1.05;;;8.00;99.90;;;;;;5058372;28;20528;-75
2021/03/16 10:14:50;;;;;;;5.45;1.73;;;8.10;99.90;;;;;;5078207;28;20016;-75
2021/03/16 10:17:25;;;;;;;3.47;1.60;;;8.30;99.90;;;;;;5077398;28;20389;-75
2021/03/16 10:19:59;;;;;;;6.43;1.50;;;8.40;99.90;;;;;;5065509;28;20595;-74
2021/03/16 10:22:33;;;;;;;13.95;2.08;;;8.50;99.90;;;;;;5072558;28;20103;-75
2021/03/16 10:25:09;;;;;;;17.33;1.67;;;8.50;99.90;;;;;;5053142;28;20072;-75
2021/03/16 10:27:35;;;;;;;14.43;2.45;;;8.50;99.90;;;;;;5066939;28;20036;-75
2021/03/16 10:30:09;;;;;;;12.15;1.45;;;8.50;99.90;;;;;;5069413;28;20051;-74
2021/03/16 10:32:37;;;;;;;3.38;1.30;;;8.80;99.90;;;;;;5067431;28;20067;-72
2021/03/16 10:35:04;;;;;;;9.18;1.77;;;9.00;99.90;;;;;;5067188;28;20104;-73
2021/03/16 10:37:30;;;;;;;7.65;1.58;;;9.10;99.90;;;;;;5061411;28;20464;-73
2021/03/16 10:39:59;;;;;;;16.83;2.55;;;9.20;99.90;;;;;;5062434;28;20120;-74
2021/03/16 10:42:24;;;;;;;9.35;1.38;;;9.30;99.90;;;;;;5071732;28;20040;-73
2021/03/16 10:44:50;;;;;;;11.98;1.45;;;9.40;99.90;;;;;;5075798;28;20032;-74
2021/03/16 10:47:16;;;;;;;10.23;1.88;;;9.60;99.90;;;;;;5065706;28;20028;-75
2021/03/16 10:49:42;;;;;;;5.75;2.55;;;9.40;99.90;;;;;;5062862;28;20401;-73
2021/03/16 10:52:07;;;;;;;12.20;1.58;;;9.40;99.90;;;;;;5074728;28;20029;-73
2021/03/16 10:54:35;;;;;;;10.80;1.52;;;9.20;99.90;;;;;;5063045;28;20021;-75
2021/03/16 10:57:01;;;;;;;9.35;1.23;;;9.30;99.90;;;;;;5065668;28;20025;-76
2021/03/16 10:59:26;;;;;;;18.45;2.55;;;9.20;99.90;;;;;;5058478;28;20544;-74
2021/03/16 11:01:52;;;;;;;12.05;0.88;;;9.20;99.90;;;;;;5068347;28;20081;-74
2021/03/16 11:04:18;;;;;;;7.05;1.40;;;9.20;99.90;;;;;;5075324;28;20029;-73
2021/03/16 11:06:47;;;;;;;11.48;1.92;;;9.10;99.90;;;;;;5067532;28;20028;-72
2021/03/16 11:09:13;;;;;;;8.68;1.90;;;8.90;99.90;;;;;;5072213;28;20043;-74
2021/03/16 11:11:40;;;;;;;4.68;1.25;;;9.00;99.90;;;;;;5072799;28;20409;-73
2021/03/16 11:14:06;;;;;;;8.38;1.40;;;8.90;99.90;;;;;;5073606;28;20033;-74
2021/03/16 11:16:32;;;;;;;7.63;1.38;;;8.70;99.90;;;;;;5077161;28;20027;-74
2021/03/16 11:18:58;;;;;;;11.85;2.03;;;8.60;99.90;;;;;;5066981;28;20021;-74
2021/03/16 11:21:23;;;;;;;11.00;1.73;;;8.50;99.90;;;;;;5068098;28;20048;-75
2021/03/16 11:23:49;;;;;;;7.32;1.48;;;8.40;99.90;;;;;;5061609;28;20025;-76
2021/03/16 11:26:15;;;;;;;4.30;1.05;;;8.60;99.90;;;;;;5063379;28;20079;-75
2021/03/16 11:28:40;;;;;;;12.02;1.70;;;8.40;99.90;;;;;;5085677;28;20517;-75
2021/03/16 11:31:06;;;;;;;12.82;3.20;;;8.50;99.90;;;;;;5056257;28;20083;-75
2021/03/16 11:33:32;;;;;;;3.45;1.08;;;8.30;99.90;;;;;;5063816;28;20099;-76
2021/03/16 11:35:57;;;;;;;4.55;1.45;;;8.30;99.90;;;;;;5061699;28;20021;-75
2021/03/16 11:38:23;;;;;;;5.10;1.20;;;8.00;99.90;;;;;;5070751;28;20056;-74
2021/03/16 11:40:49;;;;;;;4.55;0.95;;;8.10;99.90;;;;;;5074652;28;20119;-76
2021/03/16 11:43:15;;;;;;;6.53;0.90;;;8.10;99.90;;;;;;5073481;28;20032;-76
2021/03/16 11:45:42;;;;;;;6.93;2.63;;;8.10;99.90;;;;;;5064522;28;20044;-74
2021/03/16 11:48:09;;;;;;;4.25;0.63;;;8.20;99.90;;;;;;5064880;28;20467;-74
2021/03/16 11:50:35;;;;;;;3.55;1.40;;;8.30;99.90;;;;;;5066409;28;20029;-74
2021/03/16 11:53:00;;;;;;;6.45;1.80;;;8.20;99.90;;;;;;5063408;28;20052;-73
2021/03/16 11:55:26;;;;;;;10.20;1.48;;;8.20;99.90;;;;;;5063696;28;20020;-77
2021/03/16 11:57:52;;;;;;;5.90;1.10;;;8.30;99.90;;;;;;5064573;28;20115;-75
2021/03/16 12:00:18;;;;;;;1.88;0.98;;;8.30;99.90;;;;;;5066270;28;20044;-72
2021/03/16 12:02:43;;;;;;;6.88;1.00;;;8.20;99.90;;;;;;5068791;28;20305;-78
2021/03/16 12:05:10;;;;;;;5.82;1.17;;;8.20;99.90;;;;;;5063965;28;20029;-75
2021/03/16 12:07:35;;;;;;;2.95;1.17;;;8.10;99.90;;;;;;5063297;28;20041;-74
2021/03/16 12:10:01;;;;;;;10.70;1.25;;;7.90;99.90;;;;;;5063960;28;20081;-76
2021/03/16 12:12:27;;;;;;;2.58;0.50;;;8.00;99.90;;;;;;5068528;28;20078;-72
2021/03/16 12:14:53;;;;;;;3.47;0.60;;;7.80;99.90;;;;;;5071946;28;20389;-75
2021/03/16 12:17:18;;;;;;;2.92;0.60;;;7.80;99.90;;;;;;5076491;28;20028;-76
2021/03/16 12:19:44;;;;;;;6.53;1.13;;;7.70;99.90;;;;;;5068350;28;20429;-75
2021/03/16 12:22:10;;;;;;;4.72;0.50;;;7.80;99.90;;;;;;5063456;28;20159;-75
2021/03/16 12:24:36;;;;;;;5.22;0.95;;;7.90;99.90;;;;;;5065847;28;20131;-73
2021/03/16 12:27:03;;;;;;;16.48;1.00;;;7.80;99.90;;;;;;5067209;28;20032;-73
2021/03/16 12:29:29;;;;;;;2.50;0.77;;;7.70;99.90;;;;;;5072628;28;20040;-73
2021/03/16 12:31:55;;;;;;;1.00;0.47;;;7.60;99.90;;;;;;5067631;28;20048;-74
2021/03/16 12:34:20;;;;;;;3.75;0.75;;;7.60;99.90;;;;;;5066076;28;20401;-75
2021/03/16 12:36:46;;;;;;;3.20;0.70;;;7.60;99.90;;;;;;5069208;28;20044;-75
2021/03/16 12:39:13;;;;;;;6.35;0.82;;;7.70;99.90;;;;;;5070040;28;20020;-77
2021/03/16 12:41:38;;;;;;;4.57;1.55;;;7.70;99.90;;;;;;5065795;28;20078;-75
2021/03/16 12:44:04;;;;;;;4.43;1.02;;;7.70;99.90;;;;;;5062817;28;20028;-74
2021/03/16 12:46:30;;;;;;;12.27;0.98;;;7.90;99.90;;;;;;5060745;28;20602;-72
2021/03/16 12:48:55;;;;;;;2.90;1.02;;;7.80;99.90;;;;;;5061035;28;20017;-72
2021/03/16 12:51:21;;;;;;;3.05;0.43;;;7.80;99.90;;;;;;5080788;28;20024;-72
2021/03/16 12:53:47;;;;;;;2.20;1.10;;;7.70;99.90;;;;;;5068410;28;20057;-74